»·PEaware :: JUS326 KSFO-KSJC

JUS326 :: KSFO-KSJC

FLIGHT INFORMATION

Flight Status: Arrived
Operator:
USA Jet
More flights by this operator :: More flights under this callsign
Pilot: Erik S. (3779)
Aircraft: BOEING 737-300
(B733)
More flights by this aircraft type
Origin: KSFO San Francisco Intl
United States
Destination: KSJC Mineta San Jose Intl
United States
More flights between these airports :: More routes between these airports
Route: +GAPP7 OSI SJC
File this flight plan on PilotEdge
Remarks:
Altitude:
(Current/Filed)
5,000ft
Speed:
(Current/Filed)
400kts
Departed: 23-Jan-18 04:22 PM
Arrived: 23-Jan-18 04:43 PM
Distance/Time
Traveled:
27nm/0:20
Distance/Time
To Go:
Arrived

Flight Plot

Page will automatically refresh every two minutes.

Flight plan parsing failed; only flown route is shown


Map Options




Map Legend


Flown Route
Filed Route
Departure Airport
Arrival Airport
Navaid (VOR, NDB)
Fix

Horizontal Profiles

Position Reports

Time Latitude Longitude Heading Altitude Ground
Speed
23-Jan-18 16:06 37.635043 -122.389966 25 20ft 0kts
23-Jan-18 16:07 37.635043 -122.389966 25 20ft 0kts
23-Jan-18 16:08 37.635043 -122.389966 25 20ft 0kts
23-Jan-18 16:09 37.635043 -122.389966 25 20ft 0kts
23-Jan-18 16:10 37.635043 -122.389966 25 20ft 0kts
23-Jan-18 16:11 37.635043 -122.389966 25 20ft 0kts
23-Jan-18 16:12 37.635043 -122.389966 25 20ft 0kts
23-Jan-18 16:13 37.635043 -122.389966 25 20ft 0kts
23-Jan-18 16:14 37.634763 -122.390100 15 20ft 0kts
23-Jan-18 16:15 37.634260 -122.390179 357 20ft 0kts
23-Jan-18 16:16 37.634260 -122.390179 341 20ft 0kts
23-Jan-18 16:17 37.634260 -122.390179 333 20ft 0kts
23-Jan-18 16:18 37.634260 -122.390179 333 20ft 0kts
23-Jan-18 16:19 37.634261 -122.390179 333 20ft 0kts
23-Jan-18 16:20 37.633358 -122.391620 206 20ft 14kts
23-Jan-18 16:21 37.630418 -122.392297 155 20ft 11kts
23-Jan-18 16:22 37.628175 -122.388401 116 20ft 18kts
23-Jan-18 16:23 37.625201 -122.381239 117 20ft 27kts
23-Jan-18 16:24 37.621597 -122.372689 118 20ft 24kts
23-Jan-18 16:25 37.618724 -122.365865 119 20ft 19kts
23-Jan-18 16:26 37.616540 -122.360640 116 20ft 14kts
23-Jan-18 16:27 37.614730 -122.356831 169 20ft 11kts
23-Jan-18 16:28 37.616742 -122.364743 298 20ft 110kts
23-Jan-18 16:29 37.637508 -122.417176 298 1958ft 200kts
23-Jan-18 16:30 37.666408 -122.485794 298 4424ft 251kts
23-Jan-18 16:31 37.700320 -122.565970 298 5005ft 260kts
23-Jan-18 16:32 37.691950 -122.644827 207 4984ft 265kts
23-Jan-18 16:33 37.619478 -122.665682 193 4982ft 267kts
23-Jan-18 16:34 37.552724 -122.649831 117 4972ft 274kts
23-Jan-18 16:35 37.519731 -122.563479 119 4989ft 274kts
23-Jan-18 16:36 37.482218 -122.480120 119 4987ft 274kts
23-Jan-18 16:37 37.445943 -122.399345 120 4974ft 275kts
23-Jan-18 16:38 37.408538 -122.316916 119 4992ft 275kts
23-Jan-18 16:39 37.356754 -122.248311 144 5005ft 276kts
23-Jan-18 16:40 37.294708 -122.191703 143 5016ft 271kts
23-Jan-18 16:41 37.244941 -122.138909 114 5050ft 215kts
23-Jan-18 16:42 37.220661 -122.071125 112 4989ft 211kts
23-Jan-18 16:43 37.199787 -122.001562 90 4599ft 214kts
23-Jan-18 16:44 37.217808 -121.934909 61 3615ft 199kts
23-Jan-18 16:45 37.242625 -121.875886 42 3153ft 165kts
23-Jan-18 16:46 37.284317 -121.860492 10 1601ft 159kts
23-Jan-18 16:47 37.319023 -121.879431 319 1358ft 135kts
23-Jan-18 16:48 37.346946 -121.908990 315 403ft 130kts
23-Jan-18 16:49 37.367676 -121.932185 323 69ft 21kts
23-Jan-18 16:50 37.368611 -121.931598 130 69ft 0kts
23-Jan-18 16:51 37.368862 -121.931412 7 69ft 5kts
23-Jan-18 16:52 37.363574 -121.925055 138 69ft 43kts
23-Jan-18 16:53 37.359117 -121.920142 139 69ft 18kts
23-Jan-18 16:54 37.356965 -121.916610 51 69ft 0kts
23-Jan-18 16:55 37.356965 -121.916610 51 69ft 0kts
23-Jan-18 16:56 37.356965 -121.916610 51 69ft 0kts
23-Jan-18 16:57 37.356965 -121.916610 51 69ft 0kts
23-Jan-18 16:58 37.356965 -121.916610 51 69ft 0kts
23-Jan-18 16:59 37.356965 -121.916610 51 69ft 0kts
23-Jan-18 17:00 37.356965 -121.916610 51 69ft 0kts
23-Jan-18 17:01 37.356965 -121.916610 51 69ft 0kts
23-Jan-18 17:02 37.356965 -121.916610 51 69ft 0kts
23-Jan-18 17:03 37.356965 -121.916610 51 69ft 0kts
23-Jan-18 17:04 37.356965 -121.916610 51 69ft 0kts

Navigation Log

Ident Type
Flight plan parsing failed, navigation log unavailable